Time;durP1;ratioP1;P1;durP2;ratioP2;P2;SDS_P1;SDS_P2;PMS_P1;PMS_P2;Temp;Humidity;BMP_temperature;BMP_pressure;BME280_temperature;BME280_humidity;BME280_pressure;Samples;Min_cycle;Max_cycle;Signal;HPM_P1;HPM_P2
2022/05/21 00:02:06;;;;;;;2.60;1.70;;;17.80;99.90;;;;;;5044212;28;20219;-69
2022/05/21 00:04:32;;;;;;;2.07;1.97;;;17.80;99.90;;;;;;5054571;28;20207;-69
2022/05/21 00:06:58;;;;;;;3.63;1.50;;;17.70;99.80;;;;;;5052075;28;20511;-68
2022/05/21 00:09:25;;;;;;;2.00;1.87;;;17.80;99.90;;;;;;5045537;28;20224;-69
2022/05/21 00:11:51;;;;;;;1.73;1.63;;;17.70;99.80;;;;;;5050292;28;20258;-68
2022/05/21 00:14:16;;;;;;;1.97;1.87;;;17.70;99.80;;;;;;5047979;28;20438;-68
2022/05/21 00:16:42;;;;;;;1.83;1.73;;;17.70;99.90;;;;;;5043647;28;20228;-68
2022/05/21 00:19:08;;;;;;;8.70;2.03;;;17.60;99.60;;;;;;5027464;28;20247;-69
2022/05/21 00:21:33;;;;;;;4.20;2.13;;;17.70;99.80;;;;;;5042089;28;20215;-68
2022/05/21 00:23:59;;;;;;;1.80;1.70;;;17.60;99.70;;;;;;5030737;28;20219;-66
2022/05/21 00:26:25;;;;;;;1.70;1.60;;;17.70;99.90;;;;;;5049096;28;20584;-68
2022/05/21 00:28:50;;;;;;;2.23;2.03;;;17.70;99.60;;;;;;5042959;28;20234;-69
2022/05/21 00:31:18;;;;;;;1.87;1.77;;;17.70;99.50;;;;;;5047984;28;20235;-69
2022/05/21 00:33:45;;;;;;;2.40;2.10;;;17.60;99.40;;;;;;5034782;28;20250;-68
2022/05/21 00:36:12;;;;;;;2.17;2.07;;;17.60;99.50;;;;;;5028062;28;20452;-68
2022/05/21 00:38:39;;;;;;;2.17;2.00;;;17.70;99.40;;;;;;5042910;28;20549;-68
2022/05/21 00:41:07;;;;;;;11.60;2.30;;;17.60;99.70;;;;;;5047430;28;20446;-68
2022/05/21 00:43:53;;;;;;;2.93;2.33;;;17.50;99.10;;;;;;5039183;28;20565;-68
2022/05/21 00:46:27;;;;;;;2.40;2.10;;;17.40;99.20;;;;;;5048365;28;20465;-68
2022/05/21 00:49:02;;;;;;;2.40;2.20;;;17.30;99.20;;;;;;5048696;28;20462;-69
2022/05/21 00:51:43;;;;;;;7.00;2.00;;;17.40;99.40;;;;;;5049335;28;20446;-68
2022/05/21 00:54:10;;;;;;;2.57;2.37;;;17.40;99.30;;;;;;5041804;28;20534;-69
2022/05/21 00:56:41;;;;;;;2.43;2.30;;;17.40;99.20;;;;;;5044834;28;20446;-68
2022/05/21 01:01:56;;;;;;;2.53;2.33;;;17.20;99.00;;;;;;5044187;28;20943;-69
2022/05/21 01:04:24;;;;;;;2.93;2.50;;;17.20;99.30;;;;;;5045722;28;20508;-67
2022/05/21 01:06:50;;;;;;;2.60;2.40;;;17.30;99.40;;;;;;5033866;28;20474;-69
2022/05/21 01:09:16;;;;;;;4.60;2.53;;;17.40;99.30;;;;;;5050980;28;20469;-68
2022/05/21 01:11:41;;;;;;;2.80;2.60;;;17.40;99.20;;;;;;5053039;28;20973;-69
2022/05/21 01:14:10;;;;;;;3.43;2.60;;;17.40;99.20;;;;;;5050975;28;20220;-67
2022/05/21 01:16:37;;;;;;;2.87;2.50;;;17.40;99.00;;;;;;5044576;28;20216;-69
2022/05/21 01:19:09;;;;;;;9.70;2.80;;;17.30;98.80;;;;;;5050603;28;20978;-68
2022/05/21 01:21:37;;;;;;;3.53;3.00;;;17.20;98.90;;;;;;5034731;28;20447;-67
2022/05/21 01:24:05;;;;;;;4.50;4.10;;;17.20;98.90;;;;;;5032042;28;20506;-68
2022/05/21 01:26:32;;;;;;;3.30;2.90;;;17.00;98.80;;;;;;5059104;28;20454;-68
2022/05/21 01:28:58;;;;;;;3.80;3.50;;;16.80;98.80;;;;;;5046454;28;20974;-69
2022/05/21 01:31:24;;;;;;;4.27;3.87;;;16.70;99.00;;;;;;5066942;28;20532;-68
2022/05/21 01:33:49;;;;;;;4.37;3.60;;;16.70;99.10;;;;;;5034118;28;20692;-68
2022/05/21 01:36:16;;;;;;;4.43;3.60;;;16.70;99.10;;;;;;5052642;28;20231;-68
2022/05/21 01:38:42;;;;;;;4.93;3.83;;;16.70;99.10;;;;;;5050655;28;20215;-68
2022/05/21 01:41:09;;;;;;;4.67;4.10;;;16.70;99.00;;;;;;5042532;28;20501;-67
2022/05/21 01:46:19;;;;;;;9.00;4.63;;;16.40;98.80;;;;;;5051952;28;20450;-68
2022/05/21 01:48:46;;;;;;;4.43;3.97;;;16.20;98.80;;;;;;5050629;28;20458;-67
2022/05/21 01:51:12;;;;;;;8.73;5.10;;;16.10;98.90;;;;;;5050214;28;20249;-68
2022/05/21 01:53:39;;;;;;;4.60;4.20;;;16.00;99.00;;;;;;5051325;28;20443;-70
2022/05/21 01:56:06;;;;;;;5.10;4.17;;;15.90;99.10;;;;;;5050072;28;21104;-67
2022/05/21 01:58:32;;;;;;;4.77;3.77;;;15.90;99.20;;;;;;5049793;28;20561;-69
2022/05/21 02:00:58;;;;;;;4.83;3.97;;;15.90;99.30;;;;;;5051535;28;20470;-68
2022/05/21 02:03:25;;;;;;;6.90;4.20;;;15.90;99.30;;;;;;5050404;28;20887;-68
2022/05/21 02:05:51;;;;;;;4.63;4.13;;;16.00;99.40;;;;;;5041633;28;20521;-68
2022/05/21 02:08:18;;;;;;;4.07;3.40;;;16.00;99.40;;;;;;5047140;28;20454;-68
2022/05/21 02:10:45;;;;;;;4.60;4.07;;;16.10;99.50;;;;;;5046626;28;20224;-68
2022/05/21 02:13:36;;;;;;;8.23;3.97;;;16.20;99.50;;;;;;5033335;28;20460;-68
2022/05/21 02:16:03;;;;;;;6.63;5.57;;;16.30;99.50;;;;;;5030949;28;20998;-69
2022/05/21 02:18:29;;;;;;;8.07;6.63;;;16.40;99.50;;;;;;5047031;28;20470;-68
2022/05/21 02:20:55;;;;;;;5.77;3.77;;;16.30;99.10;;;;;;5053122;28;20451;-68
2022/05/21 02:23:21;;;;;;;7.50;5.13;;;16.30;99.10;;;;;;5050662;28;20227;-68
2022/05/21 02:25:47;;;;;;;21.60;13.80;;;16.30;99.30;;;;;;5049422;28;20306;-68
2022/05/21 02:28:13;;;;;;;52.77;30.40;;;16.30;99.20;;;;;;5041712;28;20627;-69
2022/05/21 02:30:39;;;;;;;19.03;12.60;;;16.30;99.20;;;;;;5046418;28;20225;-69
2022/05/21 02:33:05;;;;;;;10.00;6.80;;;16.20;98.90;;;;;;5043845;28;20989;-68
2022/05/21 02:35:31;;;;;;;7.60;6.30;;;16.00;99.00;;;;;;5028320;28;20213;-68
2022/05/21 02:40:42;;;;;;;17.00;13.20;;;15.80;99.20;;;;;;5042249;28;20261;-68
2022/05/21 02:43:07;;;;;;;24.90;17.30;;;15.80;99.50;;;;;;5039432;28;20464;-68
2022/05/21 02:45:33;;;;;;;19.57;12.50;;;15.80;99.50;;;;;;5046428;28;20212;-68
2022/05/21 02:47:59;;;;;;;8.53;6.43;;;15.70;99.30;;;;;;5043521;28;20211;-68
2022/05/21 02:50:33;;;;;;;9.97;8.93;;;15.60;99.30;;;;;;5046586;28;20305;-69
2022/05/21 02:53:04;;;;;;;12.13;10.37;;;15.60;99.60;;;;;;5042181;28;20224;-67
2022/05/21 02:55:30;;;;;;;8.93;7.50;;;15.60;99.60;;;;;;5039456;28;20450;-66
2022/05/21 02:57:57;;;;;;;7.77;5.10;;;15.50;99.40;;;;;;5037385;28;20482;-69
2022/05/21 03:00:26;;;;;;;4.97;4.30;;;15.50;99.50;;;;;;5042947;28;20482;-67
2022/05/21 03:02:53;;;;;;;7.60;6.30;;;15.40;99.60;;;;;;5041661;28;20474;-68
2022/05/21 03:05:19;;;;;;;9.93;7.30;;;15.50;99.80;;;;;;5043486;28;20442;-68
2022/05/21 03:07:48;;;;;;;10.50;6.57;;;15.50;99.70;;;;;;5039621;28;20979;-67
2022/05/21 03:10:21;;;;;;;21.77;14.37;;;15.60;99.70;;;;;;5040446;28;20463;-66
2022/05/21 03:12:52;;;;;;;25.40;17.27;;;15.70;99.90;;;;;;5042839;28;20475;-67
2022/05/21 03:15:19;;;;;;;26.03;17.47;;;15.70;99.60;;;;;;5036396;28;20454;-69
2022/05/21 03:17:46;;;;;;;45.90;26.27;;;15.70;99.50;;;;;;5042239;28;20470;-68
2022/05/21 03:20:14;;;;;;;31.13;18.17;;;15.60;99.50;;;;;;5041527;28;20458;-68
2022/05/21 03:22:40;;;;;;;23.77;14.33;;;15.60;99.60;;;;;;5044414;28;20485;-68
2022/05/21 03:25:07;;;;;;;18.83;12.43;;;15.60;99.40;;;;;;5044555;28;20470;-68
2022/05/21 03:27:33;;;;;;;15.53;7.83;;;15.50;99.50;;;;;;5040557;28;20450;-68
2022/05/21 03:29:59;;;;;;;14.13;7.47;;;15.40;99.50;;;;;;5042735;28;20451;-67
2022/05/21 03:32:25;;;;;;;11.90;9.10;;;15.30;99.60;;;;;;5041014;28;20971;-68
2022/05/21 03:34:50;;;;;;;12.80;10.13;;;15.40;99.70;;;;;;5040154;28;20228;-67
2022/05/21 03:37:16;;;;;;;12.83;8.93;;;15.50;99.70;;;;;;5042229;28;20232;-67
2022/05/21 03:39:42;;;;;;;11.63;8.97;;;15.50;99.60;;;;;;5056674;28;20725;-68
2022/05/21 03:42:09;;;;;;;7.67;6.87;;;15.60;99.60;;;;;;5039403;28;20235;-70
2022/05/21 03:44:34;;;;;;;7.33;6.60;;;15.60;99.50;;;;;;5043609;28;20208;-67
2022/05/21 03:47:00;;;;;;;6.20;5.03;;;15.60;99.50;;;;;;5041511;28;20486;-69
2022/05/21 03:49:26;;;;;;;5.67;5.07;;;15.60;99.50;;;;;;5040444;28;20220;-68
2022/05/21 03:51:52;;;;;;;5.50;4.40;;;15.60;99.40;;;;;;5034748;28;20225;-68
2022/05/21 03:54:18;;;;;;;8.30;3.80;;;15.60;99.40;;;;;;5036655;28;20250;-69
2022/05/21 03:56:44;;;;;;;3.47;2.93;;;15.60;99.30;;;;;;5039654;28;20247;-69
2022/05/21 03:59:09;;;;;;;3.17;2.30;;;15.40;99.20;;;;;;5043546;28;20219;-67
2022/05/21 04:01:35;;;;;;;2.00;1.90;;;15.40;99.40;;;;;;5036845;28;20238;-66
2022/05/21 04:04:01;;;;;;;2.20;2.00;;;15.20;99.50;;;;;;5035232;28;20726;-66
2022/05/21 04:06:27;;;;;;;2.73;2.43;;;15.20;99.60;;;;;;5024651;28;20220;-68
2022/05/21 04:08:52;;;;;;;4.17;2.80;;;15.20;99.70;;;;;;5036172;28;20235;-68
2022/05/21 04:11:18;;;;;;;2.43;2.23;;;15.10;99.80;;;;;;5039661;28;20281;-67
2022/05/21 04:13:44;;;;;;;2.50;2.30;;;15.00;99.90;;;;;;5039922;28;20224;-68
2022/05/21 04:16:10;;;;;;;3.33;2.10;;;14.90;99.90;;;;;;5039545;28;20489;-69
2022/05/21 04:18:35;;;;;;;3.50;3.20;;;14.90;99.90;;;;;;5057994;28;20220;-69
2022/05/21 04:21:01;;;;;;;3.53;2.23;;;14.90;99.90;;;;;;5041566;28;20250;-67
2022/05/21 04:23:27;;;;;;;3.07;2.17;;;14.90;99.90;;;;;;5044755;28;20227;-68
2022/05/21 04:25:52;;;;;;;2.03;1.83;;;14.90;99.90;;;;;;5037638;28;20215;-68
2022/05/21 04:28:18;;;;;;;3.20;2.13;;;14.90;99.90;;;;;;5038853;28;20699;-67
2022/05/21 04:30:44;;;;;;;1.93;1.73;;;14.80;99.90;;;;;;5040563;28;20281;-68
2022/05/21 04:33:10;;;;;;;2.03;1.77;;;14.70;99.90;;;;;;5037630;28;20968;-68
2022/05/21 04:38:19;;;;;;;2.07;1.97;;;14.60;99.90;;;;;;5040882;28;20271;-68
2022/05/21 04:40:46;;;;;;;2.60;2.20;;;14.50;99.90;;;;;;5042967;28;20470;-67
2022/05/21 04:43:12;;;;;;;2.30;2.10;;;14.50;99.90;;;;;;5040788;28;20266;-66
2022/05/21 04:45:38;;;;;;;1.70;1.60;;;14.50;99.90;;;;;;5050786;28;20485;-67
2022/05/21 04:48:05;;;;;;;3.00;2.07;;;14.50;99.90;;;;;;5059162;28;20220;-68
2022/05/21 04:50:33;;;;;;;2.13;2.00;;;14.50;99.90;;;;;;5040763;28;20459;-68
2022/05/21 04:52:59;;;;;;;2.37;2.17;;;14.50;99.90;;;;;;5040237;28;20561;-68
2022/05/21 04:55:24;;;;;;;1.73;1.63;;;14.40;99.90;;;;;;5045037;28;20645;-67
2022/05/21 04:57:50;;;;;;;2.27;1.70;;;14.40;99.90;;;;;;5041643;28;20303;-69
2022/05/21 05:00:17;;;;;;;2.03;1.87;;;14.40;99.90;;;;;;5038873;28;20212;-69
2022/05/21 05:02:42;;;;;;;2.13;2.00;;;14.40;99.90;;;;;;5042373;28;20474;-68
2022/05/21 05:05:09;;;;;;;1.43;1.33;;;14.40;99.90;;;;;;5041202;28;20450;-69
2022/05/21 05:07:36;;;;;;;1.87;1.77;;;14.30;99.90;;;;;;5059213;28;21047;-68
2022/05/21 05:10:03;;;;;;;1.50;1.40;;;14.40;99.90;;;;;;5044594;28;20473;-68
2022/05/21 05:12:29;;;;;;;2.00;1.73;;;14.40;99.90;;;;;;5045285;28;20473;-69
2022/05/21 05:14:55;;;;;;;1.60;1.50;;;14.40;99.90;;;;;;5056840;28;20452;-68
2022/05/21 05:17:20;;;;;;;1.93;1.27;;;14.40;99.90;;;;;;5041165;28;20227;-70
2022/05/21 05:19:46;;;;;;;2.07;1.57;;;14.40;99.90;;;;;;5042463;28;20567;-69
2022/05/21 05:22:13;;;;;;;1.80;1.70;;;14.40;99.90;;;;;;5038431;28;20221;-68
2022/05/21 05:24:39;;;;;;;2.47;1.90;;;14.40;99.90;;;;;;5041230;28;20847;-67
2022/05/21 05:27:06;;;;;;;1.60;1.50;;;14.30;99.90;;;;;;5040730;28;20478;-71
2022/05/21 05:29:32;;;;;;;2.80;1.53;;;14.30;99.90;;;;;;5043348;28;20453;-70
2022/05/21 05:31:57;;;;;;;3.00;1.40;;;14.40;99.90;;;;;;5037234;28;20450;-69
2022/05/21 05:34:24;;;;;;;1.40;1.30;;;14.50;99.90;;;;;;5044073;28;20228;-70
2022/05/21 05:36:49;;;;;;;1.83;1.70;;;14.50;99.90;;;;;;5041252;28;20504;-67
2022/05/21 05:39:16;;;;;;;2.40;1.60;;;14.50;99.90;;;;;;5043569;28;20216;-69
2022/05/21 05:41:42;;;;;;;5.90;1.30;;;14.60;99.90;;;;;;5040643;28;20248;-68
2022/05/21 05:44:08;;;;;;;1.80;1.70;;;14.60;99.90;;;;;;5043911;28;20855;-68
2022/05/21 05:46:33;;;;;;;1.43;1.33;;;14.60;99.90;;;;;;5044206;28;20950;-67
2022/05/21 05:48:59;;;;;;;1.03;0.93;;;14.60;99.90;;;;;;5040199;28;20535;-68
2022/05/21 05:51:27;;;;;;;2.13;1.93;;;14.60;99.90;;;;;;5039045;28;20258;-68
2022/05/21 05:53:52;;;;;;;1.87;1.60;;;14.70;99.90;;;;;;5040453;28;20237;-68
2022/05/21 05:56:19;;;;;;;10.53;1.70;;;14.70;99.90;;;;;;5055873;28;20492;-71
2022/05/21 06:01:30;;;;;;;2.10;1.23;;;14.70;99.90;;;;;;5043057;28;20463;-70
2022/05/21 06:03:55;;;;;;;2.47;1.50;;;14.70;99.90;;;;;;5058502;28;20454;-68
2022/05/21 06:06:22;;;;;;;1.57;1.47;;;14.80;99.90;;;;;;5038120;28;20302;-68
2022/05/21 06:08:47;;;;;;;1.00;1.00;;;14.80;99.90;;;;;;5041841;28;20215;-69
2022/05/21 06:11:15;;;;;;;1.40;1.30;;;14.90;99.90;;;;;;5041220;28;20451;-70
2022/05/21 06:13:41;;;;;;;1.43;1.27;;;14.90;99.90;;;;;;5041432;28;20231;-68
2022/05/21 06:16:07;;;;;;;2.97;1.40;;;14.90;99.90;;;;;;5040553;28;20606;-67
2022/05/21 06:18:32;;;;;;;3.63;1.13;;;15.00;99.90;;;;;;5027962;28;20233;-68
2022/05/21 06:21:00;;;;;;;4.67;1.33;;;15.00;99.90;;;;;;5040988;28;20475;-66
2022/05/21 06:23:26;;;;;;;4.50;1.20;;;15.00;99.90;;;;;;5040416;28;20220;-69
2022/05/21 06:25:51;;;;;;;2.17;1.20;;;15.10;99.90;;;;;;5028352;28;20454;-68
2022/05/21 06:28:18;;;;;;;3.37;1.30;;;15.20;99.90;;;;;;5059802;28;20219;-68
2022/05/21 06:30:45;;;;;;;1.60;1.10;;;15.20;99.90;;;;;;5039501;28;20223;-67
2022/05/21 06:33:18;;;;;;;1.70;1.37;;;15.20;99.90;;;;;;5040458;28;20809;-66
2022/05/21 06:35:49;;;;;;;2.30;1.30;;;15.20;99.90;;;;;;5044106;28;20529;-66
2022/05/21 06:38:15;;;;;;;1.40;1.30;;;15.30;99.90;;;;;;5035518;28;20455;-66
2022/05/21 06:40:41;;;;;;;3.47;1.53;;;15.40;99.90;;;;;;5048744;28;20871;-68
2022/05/21 06:43:07;;;;;;;3.77;2.13;;;15.50;99.90;;;;;;5046531;28;20501;-68
2022/05/21 06:45:34;;;;;;;1.80;1.70;;;15.60;99.90;;;;;;5059122;28;20211;-68
2022/05/21 06:48:02;;;;;;;2.60;1.60;;;15.60;99.90;;;;;;5035744;28;20451;-66
2022/05/21 06:50:28;;;;;;;1.73;1.63;;;15.60;99.90;;;;;;5039780;28;20454;-67
2022/05/21 06:52:54;;;;;;;2.10;1.60;;;15.70;99.90;;;;;;5039202;28;20475;-67
2022/05/21 06:55:21;;;;;;;5.37;1.50;;;15.70;99.90;;;;;;5045473;28;20212;-67
2022/05/21 06:57:48;;;;;;;2.30;1.30;;;15.80;99.90;;;;;;5041990;28;20446;-68
2022/05/21 07:00:14;;;;;;;1.40;1.30;;;15.90;99.90;;;;;;5043461;28;20508;-70
2022/05/21 07:02:40;;;;;;;1.77;1.67;;;15.90;99.90;;;;;;5041248;28;20454;-67
2022/05/21 07:07:51;;;;;;;1.40;1.30;;;16.00;99.90;;;;;;5038575;28;20695;-68
2022/05/21 07:10:22;;;;;;;3.13;2.17;;;16.00;99.90;;;;;;5041644;28;20448;-66
2022/05/21 07:12:49;;;;;;;2.27;1.30;;;16.00;99.90;;;;;;5055769;28;20220;-67
2022/05/21 07:15:16;;;;;;;2.43;1.70;;;16.10;99.90;;;;;;5038032;28;20485;-67
2022/05/21 07:17:43;;;;;;;6.30;1.50;;;16.10;99.90;;;;;;5040192;28;21021;-69
2022/05/21 07:20:14;;;;;;;2.67;1.73;;;16.10;99.90;;;;;;5043718;28;21003;-68
2022/05/21 07:22:43;;;;;;;3.83;1.27;;;16.10;99.90;;;;;;5048095;28;20446;-67
2022/05/21 07:25:14;;;;;;;1.90;1.20;;;16.20;99.90;;;;;;5064040;28;20454;-68
2022/05/21 07:27:40;;;;;;;2.37;1.30;;;16.20;99.90;;;;;;5040341;28;20458;-70
2022/05/21 07:30:07;;;;;;;3.37;1.77;;;16.30;99.90;;;;;;5047371;28;21022;-69
2022/05/21 07:32:33;;;;;;;1.77;1.13;;;16.40;99.90;;;;;;5047198;28;20513;-68
2022/05/21 07:35:06;;;;;;;3.20;1.40;;;16.50;99.90;;;;;;5046039;28;20446;-68
2022/05/21 07:37:32;;;;;;;2.50;1.37;;;16.50;99.90;;;;;;5047321;28;20458;-69
2022/05/21 07:39:58;;;;;;;2.30;1.37;;;16.60;99.90;;;;;;5038624;28;20459;-68
2022/05/21 07:42:24;;;;;;;2.10;1.40;;;16.60;99.90;;;;;;5038140;28;20454;-68
2022/05/21 07:44:50;;;;;;;1.50;1.40;;;16.70;99.90;;;;;;5038567;28;20216;-67
2022/05/21 07:47:16;;;;;;;1.47;1.37;;;16.80;99.90;;;;;;5039943;28;20243;-68
2022/05/21 07:49:41;;;;;;;1.73;1.63;;;16.90;99.90;;;;;;5048422;28;20576;-68
2022/05/21 07:52:08;;;;;;;4.30;1.50;;;17.00;99.90;;;;;;5051225;28;20224;-69
2022/05/21 07:54:34;;;;;;;1.27;1.17;;;17.00;99.90;;;;;;5038215;28;20302;-68
2022/05/21 07:57:01;;;;;;;6.13;1.47;;;17.10;99.90;;;;;;5034974;28;20555;-68
2022/05/21 07:59:28;;;;;;;7.10;1.57;;;17.20;99.90;;;;;;5039997;28;20987;-68
2022/05/21 08:01:54;;;;;;;2.10;1.40;;;17.20;99.90;;;;;;5060763;28;20462;-68
2022/05/21 08:04:20;;;;;;;3.10;1.60;;;17.30;99.90;;;;;;5043796;28;20246;-69
2022/05/21 08:06:45;;;;;;;1.67;1.30;;;17.40;99.90;;;;;;5046276;28;20458;-69
2022/05/21 08:09:11;;;;;;;1.50;1.37;;;17.40;99.90;;;;;;5036898;28;20231;-67
2022/05/21 08:11:37;;;;;;;1.07;0.97;;;17.50;99.90;;;;;;5038281;28;20250;-67
2022/05/21 08:14:03;;;;;;;3.70;1.20;;;17.60;99.90;;;;;;5038646;28;20998;-68
2022/05/21 08:16:30;;;;;;;4.10;1.20;;;17.60;99.90;;;;;;5044708;28;20692;-69
2022/05/21 08:18:56;;;;;;;0.97;0.97;;;17.70;99.90;;;;;;5045554;28;20463;-69
2022/05/21 08:21:23;;;;;;;1.83;1.13;;;17.80;99.90;;;;;;5049984;28;21130;-67
2022/05/21 08:29:17;;;;;;;5.70;1.97;;;18.00;99.90;;;;;;5050475;28;20468;-68
2022/05/21 08:31:43;;;;;;;1.57;1.47;;;18.10;99.90;;;;;;5053402;28;20458;-68
2022/05/21 08:34:08;;;;;;;1.93;1.40;;;18.10;99.90;;;;;;5044504;28;20320;-69
2022/05/21 08:36:34;;;;;;;7.07;3.67;;;18.20;99.50;;;;;;5032375;28;20220;-67
2022/05/21 08:39:00;;;;;;;1.67;1.57;;;18.30;98.80;;;;;;5031197;28;20232;-68
2022/05/21 08:41:31;;;;;;;1.97;1.20;;;18.30;98.80;;;;;;5043085;28;20235;-69
2022/05/21 08:44:07;;;;;;;2.50;1.63;;;18.40;99.00;;;;;;5030073;28;20228;-68
2022/05/21 08:47:04;;;;;;;1.67;1.57;;;18.50;99.10;;;;;;5048800;28;20856;-69
2022/05/21 08:49:39;;;;;;;1.80;1.70;;;18.60;98.70;;;;;;5044460;28;20443;-68
2022/05/21 08:52:26;;;;;;;3.00;2.20;;;18.70;98.80;;;;;;5044341;28;20885;-66
2022/05/21 08:54:57;;;;;;;1.87;1.77;;;18.70;99.00;;;;;;5057755;28;20534;-69
2022/05/21 08:57:31;;;;;;;1.70;1.60;;;18.90;98.90;;;;;;5039496;28;20530;-66
2022/05/21 09:00:08;;;;;;;2.03;1.83;;;18.90;98.40;;;;;;5039746;28;20447;-67
2022/05/21 09:02:36;;;;;;;1.83;1.60;;;18.90;98.50;;;;;;5043384;28;20450;-68
2022/05/21 09:05:08;;;;;;;2.50;1.80;;;18.90;98.00;;;;;;5032766;28;20450;-68
2022/05/21 09:08:12;;;;;;;2.10;1.77;;;18.90;98.30;;;;;;5038653;28;20450;-69
2022/05/21 09:11:01;;;;;;;2.03;1.93;;;19.00;98.50;;;;;;5046860;28;20515;-66
2022/05/21 09:14:06;;;;;;;2.30;1.80;;;19.10;98.20;;;;;;5051086;28;20497;-68
2022/05/21 09:16:54;;;;;;;1.90;1.60;;;19.20;98.60;;;;;;5043927;28;21162;-69
2022/05/21 09:19:38;;;;;;;2.50;1.60;;;19.30;98.40;;;;;;5045941;28;20447;-68
2022/05/21 09:22:07;;;;;;;3.33;2.20;;;19.40;98.10;;;;;;5052119;28;20961;-67
2022/05/21 09:24:46;;;;;;;1.90;1.80;;;19.50;97.50;;;;;;5050522;28;20439;-68
2022/05/21 09:27:33;;;;;;;1.73;1.30;;;19.50;97.20;;;;;;5045719;28;20465;-67
2022/05/21 09:30:30;;;;;;;6.67;1.80;;;19.50;96.90;;;;;;5050234;28;20490;-69
2022/05/21 09:32:59;;;;;;;1.80;1.70;;;19.70;97.10;;;;;;5050378;28;20470;-68
2022/05/21 09:35:32;;;;;;;1.63;1.53;;;19.80;97.20;;;;;;5042342;28;21082;-69
2022/05/21 09:38:15;;;;;;;1.73;1.60;;;19.90;97.10;;;;;;5041829;28;20469;-68
2022/05/21 09:40:41;;;;;;;1.90;1.80;;;20.00;97.10;;;;;;5048601;28;20446;-68
2022/05/21 09:46:34;;;;;;;2.60;2.40;;;20.00;95.80;;;;;;5062478;28;20516;-68
2022/05/21 09:49:28;;;;;;;2.83;1.80;;;20.00;96.60;;;;;;5047256;28;20451;-70
2022/05/21 09:52:02;;;;;;;3.77;1.93;;;20.10;96.60;;;;;;5052174;28;20876;-68
2022/05/21 09:54:41;;;;;;;2.80;2.30;;;20.30;96.60;;;;;;5031468;28;20467;-69
2022/05/21 09:57:27;;;;;;;2.10;1.90;;;20.40;96.50;;;;;;5049248;28;20863;-68
2022/05/21 10:00:12;;;;;;;3.93;1.77;;;20.40;95.50;;;;;;5047596;28;20458;-68
2022/05/21 10:02:43;;;;;;;1.87;1.77;;;20.40;95.60;;;;;;5048711;28;20516;-70
2022/05/21 10:05:22;;;;;;;5.03;1.60;;;20.50;95.30;;;;;;5044538;28;20992;-68
2022/05/21 10:10:59;;;;;;;1.93;1.83;;;20.50;95.00;;;;;;5041500;28;20522;-68
2022/05/21 10:13:47;;;;;;;2.00;1.90;;;20.50;95.30;;;;;;5044591;28;20534;-68
2022/05/21 10:16:47;;;;;;;2.13;1.83;;;20.50;95.50;;;;;;5044143;28;20505;-68
2022/05/21 10:19:18;;;;;;;2.20;2.00;;;20.50;95.00;;;;;;5044142;28;20459;-68
2022/05/21 10:21:56;;;;;;;2.30;1.90;;;20.50;95.10;;;;;;5047776;28;20459;-69
2022/05/21 10:24:48;;;;;;;3.53;1.80;;;20.50;95.00;;;;;;5051159;28;20457;-68
2022/05/21 10:27:38;;;;;;;3.40;2.10;;;20.50;94.60;;;;;;5063967;28;20822;-68
2022/05/21 10:30:04;;;;;;;2.20;1.80;;;20.50;94.20;;;;;;5049177;28;20491;-67
2022/05/21 10:32:49;;;;;;;3.10;2.17;;;20.40;94.90;;;;;;5037915;28;20477;-68
2022/05/21 10:35:42;;;;;;;1.90;1.80;;;20.70;94.90;;;;;;5021795;28;20561;-69
2022/05/21 10:38:28;;;;;;;1.53;1.43;;;20.80;94.80;;;;;;5041025;28;20462;-69
2022/05/21 10:40:57;;;;;;;2.53;1.63;;;20.90;94.20;;;;;;5060085;28;20517;-68
2022/05/21 10:43:31;;;;;;;1.80;1.70;;;21.00;94.40;;;;;;5048033;28;20858;-68
2022/05/21 10:46:13;;;;;;;1.97;1.73;;;21.10;94.60;;;;;;5029510;28;20439;-68
2022/05/21 10:49:06;;;;;;;1.60;1.50;;;20.90;93.60;;;;;;5061662;28;20473;-68
2022/05/21 10:52:09;;;;;;;2.30;1.60;;;21.00;94.10;;;;;;5040288;28;20554;-69
2022/05/21 10:54:41;;;;;;;1.87;1.77;;;20.80;93.30;;;;;;5034045;28;20462;-68
2022/05/21 10:57:36;;;;;;;1.60;1.50;;;21.00;94.10;;;;;;5040523;28;20463;-69
2022/05/21 11:00:18;;;;;;;2.77;1.40;;;21.20;93.80;;;;;;5034838;28;20454;-70
2022/05/21 11:03:06;;;;;;;2.03;1.83;;;21.30;93.60;;;;;;5035113;28;20466;-69
2022/05/21 11:05:40;;;;;;;1.77;1.47;;;21.40;92.50;;;;;;5047303;28;20812;-69
2022/05/21 11:08:26;;;;;;;1.60;1.33;;;21.40;93.20;;;;;;5042441;28;20497;-69
2022/05/21 11:11:00;;;;;;;1.70;1.33;;;21.50;93.30;;;;;;5042032;28;20530;-69
2022/05/21 11:13:36;;;;;;;1.83;1.47;;;21.50;92.40;;;;;;5042951;28;20501;-74
2022/05/21 11:16:13;;;;;;;2.23;1.83;;;21.30;91.30;;;;;;5047117;28;20822;-69
2022/05/21 11:18:45;;;;;;;2.10;1.43;;;21.20;91.90;;;;;;5040101;28;20558;-69
2022/05/21 11:21:33;;;;;;;2.73;1.53;;;21.30;92.70;;;;;;5048864;28;20489;-72
2022/05/21 11:24:05;;;;;;;1.30;1.30;;;21.30;91.30;;;;;;5046450;28;20524;-67
2022/05/21 11:27:10;;;;;;;1.80;1.47;;;21.40;91.80;;;;;;5055399;28;21057;-69
2022/05/21 11:29:53;;;;;;;1.00;1.00;;;21.50;92.10;;;;;;5042441;28;20554;-69
2022/05/21 11:38:23;;;;;;;2.73;1.60;;;21.90;92.10;;;;;;5034791;28;20826;-69
2022/05/21 11:47:05;;;;;;;1.70;1.60;;;22.10;91.00;;;;;;5045126;28;20450;-70
2022/05/21 11:49:51;;;;;;;2.10;1.73;;;21.90;90.70;;;;;;5044755;28;20454;-69
2022/05/21 11:52:31;;;;;;;2.27;1.60;;;21.70;90.40;;;;;;5044116;28;20438;-69
2022/05/21 11:54:57;;;;;;;1.37;1.27;;;21.80;91.20;;;;;;5041758;28;20493;-70
2022/05/21 11:57:40;;;;;;;1.53;1.43;;;22.00;90.70;;;;;;5043445;28;20481;-69
2022/05/21 12:00:08;;;;;;;1.47;1.33;;;22.10;90.70;;;;;;5027672;28;20235;-68
2022/05/21 12:03:02;;;;;;;1.60;1.50;;;22.10;90.50;;;;;;5030222;28;20442;-69
2022/05/21 12:05:34;;;;;;;1.30;1.20;;;21.90;89.50;;;;;;5042973;28;20461;-69
2022/05/21 12:08:22;;;;;;;1.30;1.20;;;21.90;90.60;;;;;;5044790;28;20442;-70
2022/05/21 12:10:57;;;;;;;2.10;1.57;;;22.00;90.50;;;;;;5037655;28;20443;-71
2022/05/21 12:13:35;;;;;;;2.97;1.77;;;22.10;90.30;;;;;;5044494;28;20481;-70
2022/05/21 12:16:22;;;;;;;1.57;1.47;;;22.20;90.60;;;;;;5049604;28;20465;-68
2022/05/21 12:18:48;;;;;;;1.60;1.50;;;22.40;90.80;;;;;;5042221;28;21018;-72
2022/05/21 12:21:40;;;;;;;3.23;1.33;;;22.60;90.20;;;;;;5038164;28;20519;-70
2022/05/21 12:24:33;;;;;;;3.73;1.50;;;22.70;90.50;;;;;;5044217;28;20458;-69
2022/05/21 12:27:21;;;;;;;2.13;1.37;;;22.60;87.70;;;;;;5045806;28;20454;-70
2022/05/21 12:29:48;;;;;;;1.57;1.47;;;22.60;90.30;;;;;;5026591;28;20459;-70
2022/05/21 12:32:23;;;;;;;1.30;1.20;;;22.80;89.00;;;;;;5040088;28;20541;-71
2022/05/21 12:34:58;;;;;;;1.60;1.50;;;22.80;87.60;;;;;;5043054;28;20966;-69
2022/05/21 12:37:30;;;;;;;1.50;1.40;;;22.70;88.90;;;;;;5031076;28;20445;-74
2022/05/21 12:40:01;;;;;;;1.60;1.50;;;22.80;88.20;;;;;;5032953;28;20454;-71
2022/05/21 12:42:46;;;;;;;2.40;1.40;;;23.00;88.70;;;;;;5036279;28;20504;-71
2022/05/21 12:45:36;;;;;;;2.80;1.63;;;23.00;87.50;;;;;;5044026;28;20444;-72
2022/05/21 12:48:10;;;;;;;2.00;1.90;;;23.20;88.00;;;;;;5047818;28;20442;-70
2022/05/21 12:50:52;;;;;;;1.80;1.70;;;23.00;87.50;;;;;;5043802;28;20451;-69
2022/05/21 12:53:41;;;;;;;4.83;1.80;;;23.00;87.10;;;;;;5036898;28;20454;-69
2022/05/21 12:56:16;;;;;;;1.67;1.57;;;23.10;89.00;;;;;;5042127;28;20449;-70
2022/05/21 12:58:41;;;;;;;3.30;1.67;;;23.20;88.60;;;;;;5047045;28;20456;-71
2022/05/21 13:01:07;;;;;;;1.80;1.70;;;23.30;88.70;;;;;;5050476;28;20476;-69
2022/05/21 13:03:35;;;;;;;2.20;1.87;;;23.30;88.30;;;;;;5049256;28;20215;-69
2022/05/21 13:06:06;;;;;;;1.90;1.53;;;23.40;88.30;;;;;;5047418;28;20306;-70
2022/05/21 13:08:34;;;;;;;1.57;1.47;;;23.50;88.40;;;;;;5044926;28;20454;-72
2022/05/21 13:11:17;;;;;;;5.30;1.87;;;23.60;87.90;;;;;;5041851;28;20459;-72
2022/05/21 13:13:45;;;;;;;2.10;2.00;;;23.60;86.60;;;;;;5044317;28;20496;-69
2022/05/21 13:16:17;;;;;;;2.17;1.50;;;23.50;86.80;;;;;;5047020;28;20465;-72
2022/05/21 13:18:53;;;;;;;2.03;1.93;;;23.50;85.80;;;;;;5050764;28;20507;-70
2022/05/21 13:21:40;;;;;;;1.53;1.43;;;23.40;85.70;;;;;;5043905;28;20537;-69
2022/05/21 13:24:24;;;;;;;4.50;1.63;;;23.50;85.20;;;;;;5051042;28;20512;-70
2022/05/21 13:27:15;;;;;;;2.80;1.50;;;23.60;86.10;;;;;;5065855;28;20453;-71
2022/05/21 13:29:42;;;;;;;1.77;1.40;;;23.80;85.40;;;;;;5041299;28;20942;-70
2022/05/21 13:32:25;;;;;;;1.80;1.70;;;24.00;83.80;;;;;;5044680;28;20539;-70
2022/05/21 13:34:58;;;;;;;1.70;1.60;;;24.10;83.40;;;;;;5028250;28;20461;-70
2022/05/21 13:37:34;;;;;;;1.70;1.50;;;24.10;82.00;;;;;;5031176;28;20439;-70
2022/05/21 13:40:17;;;;;;;3.80;1.50;;;24.10;81.70;;;;;;5040324;28;20448;-70
2022/05/21 13:42:46;;;;;;;2.50;1.80;;;24.20;82.90;;;;;;5048668;28;20533;-71
2022/05/21 13:45:17;;;;;;;2.37;2.17;;;24.30;82.50;;;;;;5025022;28;20469;-69
2022/05/21 13:47:51;;;;;;;2.93;2.50;;;24.20;83.30;;;;;;5051452;28;20457;-70